aviador You're here:

LFMN Decoded Metar

NICE in FRANCE
Report Time2018-07-18 19:30:00
UTC Time2018-07-18 20:01:46
Flight Rules vfr VFR
WindVRB at 02 kt
Visibility9999 m
Phenomena:N/A
Clouds:Few 013 Hf
Expected CloudBase > 1,200 ft AGL from Temp-Dew spread
CeilingNone
Temp25°C (ISA +10)
Dew Point22°C (83% RH)
QNH1013 hPa
Density Alt1,545 ft
Elevation33 ft
Report Wrong Elevation
Raw Report
LFMN 181930Z VRB02KT 9999 FEW013 25/22 Q1013 NOSIG=

Extra information for LFMN:More info

Metar Taf Metar & Taf Last 4 Metars F.Rules Stats Wind Profile Meteogram Temp Stats Airport Information Weather charts Add Link Nearby VenuesMetar ALERT Operation Metar Decoded Social comments